sensor_id;sensor_type;location;lat;lon;timestamp;pressure;altitude;pressure_sealevel;temperature;humidity
45864;BME280;31579;52.354;16.974;2023-04-03T00:00:09;126.7;;;-146.1;100.0
45864;BME280;31579;52.354;16.974;2023-04-03T00:01:13;131.3;;;-146.1;100.0
45864;BME280;31579;52.354;16.974;2023-04-03T00:02:15;116.3;;;-146.1;100.0
45864;BME280;31579;52.354;16.974;2023-04-03T00:03:19;109.9;;;-146.1;100.0
45864;BME280;31579;52.354;16.974;2023-04-03T00:04:21;99.3;;;-146.1;100.0
45864;BME280;31579;52.354;16.974;2023-04-03T00:05:24;96.8;;;-146.1;100.0
45864;BME280;31579;52.354;16.974;2023-04-03T00:06:27;102.3;;;-146.1;100.0
45864;BME280;31579;52.354;16.974;2023-04-03T00:07:30;98.5;;;-146.1;100.0
45864;BME280;31579;52.354;16.974;2023-04-03T00:08:35;91.5;;;-146.1;100.0
45864;BME280;31579;52.354;16.974;2023-04-03T00:09:37;103.1;;;-146.1;100.0
45864;BME280;31579;52.354;16.974;2023-04-03T00:10:40;104.3;;;-146.1;100.0
45864;BME280;31579;52.354;16.974;2023-04-03T00:11:43;104.9;;;-146.1;100.0
45864;BME280;31579;52.354;16.974;2023-04-03T00:12:46;100.9;;;-146.1;100.0
45864;BME280;31579;52.354;16.974;2023-04-03T00:13:49;97.4;;;-146.1;100.0
45864;BME280;31579;52.354;16.974;2023-04-03T00:14:52;94.7;;;-146.1;100.0
45864;BME280;31579;52.354;16.974;2023-04-03T00:15:55;91.0;;;-146.1;100.0
45864;BME280;31579;52.354;16.974;2023-04-03T00:16:58;83.4;;;-146.1;100.0
45864;BME280;31579;52.354;16.974;2023-04-03T00:18:06;85.4;;;-146.1;100.0
45864;BME280;31579;52.354;16.974;2023-04-03T00:19:09;73.3;;;-146.1;100.0
45864;BME280;31579;52.354;16.974;2023-04-03T00:20:12;78.3;;;-146.1;100.0
45864;BME280;31579;52.354;16.974;2023-04-03T00:21:15;74.0;;;-146.1;100.0
45864;BME280;31579;52.354;16.974;2023-04-03T00:22:18;72.2;;;-146.1;100.0
45864;BME280;31579;52.354;16.974;2023-04-03T00:23:22;81.0;;;-146.1;100.0
45864;BME280;31579;52.354;16.974;2023-04-03T00:24:25;78.6;;;-146.1;100.0
45864;BME280;31579;52.354;16.974;2023-04-03T00:25:28;76.9;;;-146.1;100.0
45864;BME280;31579;52.354;16.974;2023-04-03T00:26:31;77.6;;;-146.1;100.0
45864;BME280;31579;52.354;16.974;2023-04-03T00:27:36;71.4;;;-146.1;100.0
45864;BME280;31579;52.354;16.974;2023-04-03T00:28:38;66.4;;;-146.1;100.0
45864;BME280;31579;52.354;16.974;2023-04-03T00:29:41;59.1;;;-146.1;100.0
45864;BME280;31579;52.354;16.974;2023-04-03T00:30:44;55.3;;;-146.1;100.0
45864;BME280;31579;52.354;16.974;2023-04-03T00:31:47;59.6;;;-146.1;100.0
45864;BME280;31579;52.354;16.974;2023-04-03T00:32:51;55.7;;;-146.1;100.0
45864;BME280;31579;52.354;16.974;2023-04-03T00:33:54;58.5;;;-146.1;100.0
45864;BME280;31579;52.354;16.974;2023-04-03T00:34:57;51.0;;;-146.1;100.0
45864;BME280;31579;52.354;16.974;2023-04-03T00:37:04;37.6;;;-146.1;100.0
45864;BME280;31579;52.354;16.974;2023-04-03T00:38:07;28.8;;;-146.1;100.0
45864;BME280;31579;52.354;16.974;2023-04-03T00:39:10;29.3;;;-146.1;100.0
45864;BME280;31579;52.354;16.974;2023-04-03T00:40:14;28.6;;;-146.1;100.0
45864;BME280;31579;52.354;16.974;2023-04-03T00:41:16;32.6;;;-146.1;100.0
45864;BME280;31579;52.354;16.974;2023-04-03T00:42:19;29.5;;;-146.1;100.0
45864;BME280;31579;52.354;16.974;2023-04-03T00:43:24;23.4;;;-146.1;100.0
45864;BME280;31579;52.354;16.974;2023-04-03T00:46:31;-3.6;;;-146.1;100.0
45864;BME280;31579;52.354;16.974;2023-04-03T00:47:34;-8.0;;;-146.1;100.0
45864;BME280;31579;52.354;16.974;2023-04-03T00:48:42;-11.3;;;-146.1;100.0
45864;BME280;31579;52.354;16.974;2023-04-03T00:49:40;-12.9;;;-146.1;100.0
45864;BME280;31579;52.354;16.974;2023-04-03T00:50:43;-10.9;;;-146.1;100.0
45864;BME280;31579;52.354;16.974;2023-04-03T00:51:46;-11.6;;;-146.1;100.0
45864;BME280;31579;52.354;16.974;2023-04-03T00:52:49;-11.3;;;-146.1;100.0
45864;BME280;31579;52.354;16.974;2023-04-03T00:53:55;-19.0;;;-146.1;100.0
45864;BME280;31579;52.354;16.974;2023-04-03T00:54:57;-21.1;;;-146.1;100.0
45864;BME280;31579;52.354;16.974;2023-04-03T00:56:00;-30.8;;;-146.1;100.0
45864;BME280;31579;52.354;16.974;2023-04-03T00:57:02;-34.4;;;-146.1;100.0
45864;BME280;31579;52.354;16.974;2023-04-03T00:58:05;-46.8;;;-146.1;100.0
45864;BME280;31579;52.354;16.974;2023-04-03T00:59:08;-43.8;;;-146.1;100.0
45864;BME280;31579;52.354;16.974;2023-04-03T01:00:12;-44.3;;;-146.1;100.0
45864;BME280;31579;52.354;16.974;2023-04-03T01:01:15;-45.5;;;-146.1;100.0
45864;BME280;31579;52.354;16.974;2023-04-03T01:02:16;-44.2;;;-146.1;100.0
45864;BME280;31579;52.354;16.974;2023-04-03T01:03:23;-36.6;;;-146.1;100.0
45864;BME280;31579;52.354;16.974;2023-04-03T01:04:30;-49.3;;;-146.1;100.0
45864;BME280;31579;52.354;16.974;2023-04-03T01:05:29;-50.8;;;-146.1;100.0
45864;BME280;31579;52.354;16.974;2023-04-03T01:06:33;-48.3;;;-146.1;100.0
45864;BME280;31579;52.354;16.974;2023-04-03T01:07:35;-52.4;;;-146.1;100.0
45864;BME280;31579;52.354;16.974;2023-04-03T01:08:38;-51.0;;;-146.1;100.0
45864;BME280;31579;52.354;16.974;2023-04-03T01:09:41;-50.6;;;-146.1;100.0
45864;BME280;31579;52.354;16.974;2023-04-03T01:10:44;-51.4;;;-146.1;100.0
45864;BME280;31579;52.354;16.974;2023-04-03T01:11:47;-50.5;;;-146.1;100.0
45864;BME280;31579;52.354;16.974;2023-04-03T01:12:51;-55.3;;;-146.1;100.0
45864;BME280;31579;52.354;16.974;2023-04-03T01:13:53;-61.0;;;-146.1;100.0
45864;BME280;31579;52.354;16.974;2023-04-03T01:14:57;-63.9;;;-146.1;100.0
45864;BME280;31579;52.354;16.974;2023-04-03T01:16:00;-63.6;;;-146.1;100.0
45864;BME280;31579;52.354;16.974;2023-04-03T01:17:01;-62.8;;;-146.1;100.0
45864;BME280;31579;52.354;16.974;2023-04-03T01:18:05;-60.9;;;-146.1;100.0
45864;BME280;31579;52.354;16.974;2023-04-03T01:19:08;-63.2;;;-146.1;100.0
45864;BME280;31579;52.354;16.974;2023-04-03T01:21:20;-65.1;;;-146.1;100.0
45864;BME280;31579;52.354;16.974;2023-04-03T01:22:19;-66.0;;;-146.1;100.0
45864;BME280;31579;52.354;16.974;2023-04-03T01:24:27;-69.9;;;-146.1;100.0
45864;BME280;31579;52.354;16.974;2023-04-03T01:25:26;-70.6;;;-146.1;100.0
45864;BME280;31579;52.354;16.974;2023-04-03T01:26:30;-70.5;;;-146.1;100.0
45864;BME280;31579;52.354;16.974;2023-04-03T01:27:33;-73.7;;;-146.1;100.0
45864;BME280;31579;52.354;16.974;2023-04-03T01:28:36;-76.7;;;-146.1;100.0
45864;BME280;31579;52.354;16.974;2023-04-03T01:29:40;-79.7;;;-146.1;100.0
45864;BME280;31579;52.354;16.974;2023-04-03T01:32:49;-79.9;;;-146.1;100.0
45864;BME280;31579;52.354;16.974;2023-04-03T01:33:52;-81.5;;;-146.1;100.0
45864;BME280;31579;52.354;16.974;2023-04-03T01:34:55;-80.4;;;-146.1;100.0
45864;BME280;31579;52.354;16.974;2023-04-03T01:35:58;-80.3;;;-146.1;100.0
45864;BME280;31579;52.354;16.974;2023-04-03T01:37:02;-78.6;;;-146.1;100.0
45864;BME280;31579;52.354;16.974;2023-04-03T01:38:05;-81.6;;;-146.1;100.0
45864;BME280;31579;52.354;16.974;2023-04-03T01:39:08;-82.4;;;-146.1;100.0
45864;BME280;31579;52.354;16.974;2023-04-03T01:40:11;-83.6;;;-146.1;100.0
45864;BME280;31579;52.354;16.974;2023-04-03T01:41:14;-85.7;;;-146.1;100.0
45864;BME280;31579;52.354;16.974;2023-04-03T01:42:17;-83.8;;;-146.1;100.0
45864;BME280;31579;52.354;16.974;2023-04-03T01:43:20;-84.3;;;-146.1;100.0
45864;BME280;31579;52.354;16.974;2023-04-03T01:44:23;-85.9;;;-146.1;100.0
45864;BME280;31579;52.354;16.974;2023-04-03T01:45:26;-86.9;;;-146.1;100.0
45864;BME280;31579;52.354;16.974;2023-04-03T01:46:29;-87.0;;;-146.1;100.0
45864;BME280;31579;52.354;16.974;2023-04-03T01:47:32;-85.4;;;-146.1;100.0
45864;BME280;31579;52.354;16.974;2023-04-03T01:48:35;-83.0;;;-146.1;100.0
45864;BME280;31579;52.354;16.974;2023-04-03T01:49:38;-81.8;;;-146.1;100.0
45864;BME280;31579;52.354;16.974;2023-04-03T01:50:41;-82.2;;;-146.1;100.0
45864;BME280;31579;52.354;16.974;2023-04-03T01:51:44;-84.8;;;-146.1;100.0
45864;BME280;31579;52.354;16.974;2023-04-03T01:52:47;-86.2;;;-146.1;100.0
45864;BME280;31579;52.354;16.974;2023-04-03T01:53:50;-87.0;;;-146.1;100.0
45864;BME280;31579;52.354;16.974;2023-04-03T01:54:53;-85.4;;;-146.1;100.0
45864;BME280;31579;52.354;16.974;2023-04-03T01:55:56;-86.4;;;-146.1;100.0
45864;BME280;31579;52.354;16.974;2023-04-03T01:56:59;-86.4;;;-146.1;100.0
45864;BME280;31579;52.354;16.974;2023-04-03T01:58:01;-88.8;;;-146.1;100.0
45864;BME280;31579;52.354;16.974;2023-04-03T01:59:04;-87.8;;;-146.1;100.0
45864;BME280;31579;52.354;16.974;2023-04-03T02:00:08;-88.8;;;-146.1;100.0
45864;BME280;31579;52.354;16.974;2023-04-03T02:01:11;-89.9;;;-146.1;100.0
45864;BME280;31579;52.354;16.974;2023-04-03T02:02:15;-90.4;;;-146.1;100.0
45864;BME280;31579;52.354;16.974;2023-04-03T02:03:18;-93.4;;;-146.1;100.0
45864;BME280;31579;52.354;16.974;2023-04-03T02:04:21;-95.1;;;-146.1;100.0
45864;BME280;31579;52.354;16.974;2023-04-03T02:05:24;-96.2;;;-146.1;100.0
45864;BME280;31579;52.354;16.974;2023-04-03T02:06:27;-99.0;;;-146.1;100.0
45864;BME280;31579;52.354;16.974;2023-04-03T02:07:30;-99.7;;;-146.1;100.0
45864;BME280;31579;52.354;16.974;2023-04-03T02:08:33;-100.8;;;-146.1;100.0
45864;BME280;31579;52.354;16.974;2023-04-03T02:09:36;-100.5;;;-146.1;100.0
45864;BME280;31579;52.354;16.974;2023-04-03T02:10:39;-100.9;;;-146.1;100.0
45864;BME280;31579;52.354;16.974;2023-04-03T02:11:42;-102.4;;;-146.1;100.0
45864;BME280;31579;52.354;16.974;2023-04-03T02:12:45;-103.2;;;-146.1;100.0
45864;BME280;31579;52.354;16.974;2023-04-03T02:13:48;-103.6;;;-146.1;100.0
45864;BME280;31579;52.354;16.974;2023-04-03T02:14:51;-102.7;;;-146.1;100.0
45864;BME280;31579;52.354;16.974;2023-04-03T02:15:54;-103.5;;;-146.1;100.0
45864;BME280;31579;52.354;16.974;2023-04-03T02:16:57;-103.6;;;-146.1;100.0
45864;BME280;31579;52.354;16.974;2023-04-03T02:18:00;-104.7;;;-146.1;100.0
45864;BME280;31579;52.354;16.974;2023-04-03T02:19:03;-105.4;;;-146.1;100.0
45864;BME280;31579;52.354;16.974;2023-04-03T02:20:06;-104.9;;;-146.1;100.0
45864;BME280;31579;52.354;16.974;2023-04-03T02:21:09;-104.7;;;-146.1;100.0
45864;BME280;31579;52.354;16.974;2023-04-03T02:22:12;-104.2;;;-146.1;100.0
45864;BME280;31579;52.354;16.974;2023-04-03T02:23:15;-102.4;;;-146.1;100.0
45864;BME280;31579;52.354;16.974;2023-04-03T02:24:18;-101.6;;;-146.1;100.0
45864;BME280;31579;52.354;16.974;2023-04-03T02:25:21;-102.4;;;-146.1;100.0
45864;BME280;31579;52.354;16.974;2023-04-03T02:26:24;-104.0;;;-146.1;100.0
45864;BME280;31579;52.354;16.974;2023-04-03T02:27:27;-102.5;;;-146.1;100.0
45864;BME280;31579;52.354;16.974;2023-04-03T02:28:30;-101.8;;;-146.1;100.0
45864;BME280;31579;52.354;16.974;2023-04-03T02:29:33;-101.1;;;-146.1;100.0
45864;BME280;31579;52.354;16.974;2023-04-03T02:30:36;-100.7;;;-146.1;100.0
45864;BME280;31579;52.354;16.974;2023-04-03T02:31:39;-101.9;;;-146.1;100.0
45864;BME280;31579;52.354;16.974;2023-04-03T02:32:42;-101.1;;;-146.1;100.0
45864;BME280;31579;52.354;16.974;2023-04-03T02:33:45;-101.8;;;-146.1;100.0
45864;BME280;31579;52.354;16.974;2023-04-03T02:34:48;-102.5;;;-146.1;100.0
45864;BME280;31579;52.354;16.974;2023-04-03T02:35:52;-104.3;;;-146.1;100.0
45864;BME280;31579;52.354;16.974;2023-04-03T02:36:54;-105.3;;;-146.1;100.0
45864;BME280;31579;52.354;16.974;2023-04-03T02:37:57;-105.9;;;-146.1;100.0
45864;BME280;31579;52.354;16.974;2023-04-03T02:38:59;-106.4;;;-146.1;100.0
45864;BME280;31579;52.354;16.974;2023-04-03T02:40:03;-107.9;;;-146.1;100.0
45864;BME280;31579;52.354;16.974;2023-04-03T02:41:07;-108.8;;;-146.1;100.0
45864;BME280;31579;52.354;16.974;2023-04-03T02:42:10;-111.1;;;-146.1;100.0
45864;BME280;31579;52.354;16.974;2023-04-03T02:43:13;-111.7;;;-146.1;100.0
45864;BME280;31579;52.354;16.974;2023-04-03T02:44:16;-112.5;;;-146.1;100.0
45864;BME280;31579;52.354;16.974;2023-04-03T02:45:19;-114.3;;;-146.1;100.0
45864;BME280;31579;52.354;16.974;2023-04-03T02:46:22;-115.8;;;-146.1;100.0
45864;BME280;31579;52.354;16.974;2023-04-03T02:47:26;-116.9;;;-146.1;100.0
45864;BME280;31579;52.354;16.974;2023-04-03T02:48:29;-117.1;;;-146.1;100.0
45864;BME280;31579;52.354;16.974;2023-04-03T02:49:32;-116.8;;;-146.1;100.0
45864;BME280;31579;52.354;16.974;2023-04-03T02:50:35;-117.5;;;-146.1;100.0
45864;BME280;31579;52.354;16.974;2023-04-03T02:51:38;-117.9;;;-146.1;100.0
45864;BME280;31579;52.354;16.974;2023-04-03T02:52:41;-118.6;;;-146.1;100.0
45864;BME280;31579;52.354;16.974;2023-04-03T02:53:44;-116.7;;;-146.1;100.0
45864;BME280;31579;52.354;16.974;2023-04-03T02:54:47;-117.0;;;-146.1;100.0
45864;BME280;31579;52.354;16.974;2023-04-03T02:55:50;-117.4;;;-146.1;100.0
45864;BME280;31579;52.354;16.974;2023-04-03T02:56:53;-117.2;;;-146.1;100.0
45864;BME280;31579;52.354;16.974;2023-04-03T02:57:56;-117.4;;;-146.1;100.0
45864;BME280;31579;52.354;16.974;2023-04-03T02:58:59;-117.0;;;-146.1;100.0
45864;BME280;31579;52.354;16.974;2023-04-03T03:00:01;-118.7;;;-146.1;100.0
45864;BME280;31579;52.354;16.974;2023-04-03T03:01:04;-119.0;;;-146.1;100.0
45864;BME280;31579;52.354;16.974;2023-04-03T03:02:07;-120.4;;;-146.1;100.0
45864;BME280;31579;52.354;16.974;2023-04-03T03:03:10;-121.2;;;-146.1;100.0
45864;BME280;31579;52.354;16.974;2023-04-03T03:04:13;-122.4;;;-146.1;100.0
45864;BME280;31579;52.354;16.974;2023-04-03T03:05:16;-123.3;;;-146.1;100.0
45864;BME280;31579;52.354;16.974;2023-04-03T03:06:19;-124.5;;;-146.1;100.0
45864;BME280;31579;52.354;16.974;2023-04-03T03:07:35;-125.9;;;-146.1;100.0
45864;BME280;31579;52.354;16.974;2023-04-03T03:08:38;-125.2;;;-146.1;100.0
45864;BME280;31579;52.354;16.974;2023-04-03T03:09:41;-126.0;;;-146.1;100.0
45864;BME280;31579;52.354;16.974;2023-04-03T03:10:44;-125.7;;;-146.1;100.0
45864;BME280;31579;52.354;16.974;2023-04-03T03:11:47;-126.9;;;-146.1;100.0
45864;BME280;31579;52.354;16.974;2023-04-03T03:12:50;-127.4;;;-146.1;100.0
45864;BME280;31579;52.354;16.974;2023-04-03T03:13:54;-128.4;;;-146.1;100.0
45864;BME280;31579;52.354;16.974;2023-04-03T03:14:57;-128.2;;;-146.1;100.0
45864;BME280;31579;52.354;16.974;2023-04-03T03:16:01;-122.1;;;-146.1;100.0
45864;BME280;31579;52.354;16.974;2023-04-03T03:17:05;-125.5;;;-146.1;100.0
45864;BME280;31579;52.354;16.974;2023-04-03T03:18:09;-128.0;;;-146.1;100.0
45864;BME280;31579;52.354;16.974;2023-04-03T03:19:12;-129.3;;;-146.1;100.0
45864;BME280;31579;52.354;16.974;2023-04-03T03:20:15;-130.0;;;-146.1;100.0
45864;BME280;31579;52.354;16.974;2023-04-03T03:21:18;-130.5;;;-146.1;100.0
45864;BME280;31579;52.354;16.974;2023-04-03T03:22:27;-124.8;;;-146.1;100.0
45864;BME280;31579;52.354;16.974;2023-04-03T03:23:30;-117.3;;;-146.1;100.0
45864;BME280;31579;52.354;16.974;2023-04-03T03:24:33;-120.3;;;-146.1;100.0
45864;BME280;31579;52.354;16.974;2023-04-03T03:25:38;-123.4;;;-146.1;100.0
45864;BME280;31579;52.354;16.974;2023-04-03T03:26:39;-125.6;;;-146.1;100.0
45864;BME280;31579;52.354;16.974;2023-04-03T03:27:42;-126.4;;;-146.1;100.0
45864;BME280;31579;52.354;16.974;2023-04-03T03:28:45;-127.2;;;-146.1;100.0
45864;BME280;31579;52.354;16.974;2023-04-03T03:29:48;-128.4;;;-146.1;100.0
45864;BME280;31579;52.354;16.974;2023-04-03T03:30:52;-128.6;;;-146.1;100.0
45864;BME280;31579;52.354;16.974;2023-04-03T03:31:55;-127.3;;;-146.1;100.0
45864;BME280;31579;52.354;16.974;2023-04-03T03:32:58;-127.9;;;-146.1;100.0
45864;BME280;31579;52.354;16.974;2023-04-03T03:34:00;-136.4;;;-146.1;100.0
45864;BME280;31579;52.354;16.974;2023-04-03T03:35:04;-132.5;;;-146.1;100.0
45864;BME280;31579;52.354;16.974;2023-04-03T03:36:07;-131.0;;;-146.1;100.0
45864;BME280;31579;52.354;16.974;2023-04-03T03:37:10;-130.7;;;-146.1;100.0
45864;BME280;31579;52.354;16.974;2023-04-03T03:38:13;-130.9;;;-146.1;100.0
45864;BME280;31579;52.354;16.974;2023-04-03T03:39:16;-129.9;;;-146.1;100.0
45864;BME280;31579;52.354;16.974;2023-04-03T03:40:19;-127.1;;;-146.1;100.0
45864;BME280;31579;52.354;16.974;2023-04-03T03:41:22;-125.2;;;-146.1;100.0
45864;BME280;31579;52.354;16.974;2023-04-03T03:42:24;-137.8;;;-146.1;100.0
45864;BME280;31579;52.354;16.974;2023-04-03T03:43:27;-130.5;;;-146.1;100.0
45864;BME280;31579;52.354;16.974;2023-04-03T03:44:30;-128.8;;;-146.1;100.0
45864;BME280;31579;52.354;16.974;2023-04-03T03:45:33;-127.6;;;-146.1;100.0
45864;BME280;31579;52.354;16.974;2023-04-03T03:46:36;-126.8;;;-146.1;100.0
45864;BME280;31579;52.354;16.974;2023-04-03T03:47:39;-125.9;;;-146.1;100.0
45864;BME280;31579;52.354;16.974;2023-04-03T03:48:42;-123.4;;;-146.1;100.0
45864;BME280;31579;52.354;16.974;2023-04-03T03:49:45;-121.0;;;-146.1;100.0
45864;BME280;31579;52.354;16.974;2023-04-03T03:50:49;-120.1;;;-146.1;100.0
45864;BME280;31579;52.354;16.974;2023-04-03T03:51:52;-120.3;;;-146.1;100.0
45864;BME280;31579;52.354;16.974;2023-04-03T03:52:55;-119.7;;;-146.1;100.0
45864;BME280;31579;52.354;16.974;2023-04-03T03:53:58;-118.5;;;-146.1;100.0
45864;BME280;31579;52.354;16.974;2023-04-03T03:55:00;-130.2;;;-146.1;100.0
45864;BME280;31579;52.354;16.974;2023-04-03T03:56:03;-121.7;;;-146.1;100.0
45864;BME280;31579;52.354;16.974;2023-04-03T03:57:06;-118.1;;;-146.1;100.0
45864;BME280;31579;52.354;16.974;2023-04-03T03:58:09;-115.6;;;-146.1;100.0
45864;BME280;31579;52.354;16.974;2023-04-03T03:59:12;-112.4;;;-146.1;100.0
45864;BME280;31579;52.354;16.974;2023-04-03T04:00:15;-109.3;;;-146.1;100.0
45864;BME280;31579;52.354;16.974;2023-04-03T04:01:18;-108.7;;;-146.1;100.0
45864;BME280;31579;52.354;16.974;2023-04-03T04:02:21;-107.2;;;-146.1;100.0
45864;BME280;31579;52.354;16.974;2023-04-03T04:03:38;-93.6;;;-146.1;100.0
45864;BME280;31579;52.354;16.974;2023-04-03T04:04:42;-83.3;;;-146.1;100.0
45864;BME280;31579;52.354;16.974;2023-04-03T04:05:45;-88.6;;;-146.1;100.0
45864;BME280;31579;52.354;16.974;2023-04-03T04:06:48;-92.3;;;-146.1;100.0
45864;BME280;31579;52.354;16.974;2023-04-03T04:07:52;-93.4;;;-146.1;100.0
45864;BME280;31579;52.354;16.974;2023-04-03T04:08:55;-93.1;;;-146.1;100.0
45864;BME280;31579;52.354;16.974;2023-04-03T04:09:58;-93.4;;;-146.1;100.0
45864;BME280;31579;52.354;16.974;2023-04-03T04:11:00;-114.8;;;-146.1;100.0
45864;BME280;31579;52.354;16.974;2023-04-03T04:12:04;-103.0;;;-146.1;100.0
45864;BME280;31579;52.354;16.974;2023-04-03T04:13:07;-101.8;;;-146.1;100.0
45864;BME280;31579;52.354;16.974;2023-04-03T04:14:10;-100.9;;;-146.1;100.0
45864;BME280;31579;52.354;16.974;2023-04-03T04:15:13;-100.1;;;-146.1;100.0
45864;BME280;31579;52.354;16.974;2023-04-03T04:16:16;-98.1;;;-146.1;100.0
45864;BME280;31579;52.354;16.974;2023-04-03T04:17:19;-98.6;;;-146.1;100.0
45864;BME280;31579;52.354;16.974;2023-04-03T04:18:22;-95.3;;;-146.1;100.0
45864;BME280;31579;52.354;16.974;2023-04-03T04:18:46;-90.9;;;-146.1;100.0
45864;BME280;31579;52.354;16.974;2023-04-03T04:19:49;-84.3;;;-146.1;100.0
45864;BME280;31579;52.354;16.974;2023-04-03T04:20:52;-84.2;;;-146.1;100.0
45864;BME280;31579;52.354;16.974;2023-04-03T04:21:55;-81.4;;;-146.1;100.0
45864;BME280;31579;52.354;16.974;2023-04-03T04:22:58;-80.9;;;-146.1;100.0
45864;BME280;31579;52.354;16.974;2023-04-03T04:24:00;-105.4;;;-146.1;100.0
45864;BME280;31579;52.354;16.974;2023-04-03T04:25:04;-89.8;;;-146.1;100.0
45864;BME280;31579;52.354;16.974;2023-04-03T04:26:07;-85.4;;;-146.1;100.0
45864;BME280;31579;52.354;16.974;2023-04-03T04:27:10;-83.3;;;-146.1;100.0
45864;BME280;31579;52.354;16.974;2023-04-03T04:28:14;-81.9;;;-146.1;100.0
45864;BME280;31579;52.354;16.974;2023-04-03T04:29:16;-80.0;;;-146.1;100.0
45864;BME280;31579;52.354;16.974;2023-04-03T04:30:19;-77.9;;;-146.1;100.0
45864;BME280;31579;52.354;16.974;2023-04-03T04:31:22;-75.9;;;-146.1;100.0
45864;BME280;31579;52.354;16.974;2023-04-03T04:32:25;-75.8;;;-146.1;100.0
45864;BME280;31579;52.354;16.974;2023-04-03T04:33:28;-71.1;;;-146.1;100.0
45864;BME280;31579;52.354;16.974;2023-04-03T04:34:31;-70.4;;;-146.1;100.0
45864;BME280;31579;52.354;16.974;2023-04-03T04:35:34;-72.8;;;-146.1;100.0
45864;BME280;31579;52.354;16.974;2023-04-03T04:36:37;-71.4;;;-146.1;100.0
45864;BME280;31579;52.354;16.974;2023-04-03T04:37:40;-70.5;;;-146.1;100.0
45864;BME280;31579;52.354;16.974;2023-04-03T04:38:43;-91.9;;;-146.1;100.0
45864;BME280;31579;52.354;16.974;2023-04-03T04:39:46;-77.9;;;-146.1;100.0
45864;BME280;31579;52.354;16.974;2023-04-03T04:40:49;-75.6;;;-146.1;100.0
45864;BME280;31579;52.354;16.974;2023-04-03T04:41:52;-72.6;;;-146.1;100.0
45864;BME280;31579;52.354;16.974;2023-04-03T04:42:55;-69.9;;;-146.1;100.0
45864;BME280;31579;52.354;16.974;2023-04-03T04:43:58;-64.8;;;-146.1;100.0
45864;BME280;31579;52.354;16.974;2023-04-03T04:45:00;-89.8;;;-146.1;100.0
45864;BME280;31579;52.354;16.974;2023-04-03T04:46:08;-71.2;;;-146.1;100.0
45864;BME280;31579;52.354;16.974;2023-04-03T04:47:07;-67.2;;;-146.1;100.0
45864;BME280;31579;52.354;16.974;2023-04-03T04:48:10;-63.4;;;-146.1;100.0
45864;BME280;31579;52.354;16.974;2023-04-03T04:49:13;-58.8;;;-146.1;100.0
45864;BME280;31579;52.354;16.974;2023-04-03T04:50:16;-52.9;;;-146.1;100.0
45864;BME280;31579;52.354;16.974;2023-04-03T04:51:19;-47.7;;;-146.1;100.0
45864;BME280;31579;52.354;16.974;2023-04-03T04:52:22;-43.4;;;-146.1;100.0
45864;BME280;31579;52.354;16.974;2023-04-03T04:53:26;-34.8;;;-146.1;100.0
45864;BME280;31579;52.354;16.974;2023-04-03T04:54:29;-28.8;;;-146.1;100.0
45864;BME280;31579;52.354;16.974;2023-04-03T04:55:32;-22.7;;;-146.1;100.0
45864;BME280;31579;52.354;16.974;2023-04-03T04:56:35;-15.4;;;-146.1;100.0
45864;BME280;31579;52.354;16.974;2023-04-03T04:57:38;-6.5;;;-146.1;100.0
45864;BME280;31579;52.354;16.974;2023-04-03T04:58:41;2.3;;;-146.1;100.0
45864;BME280;31579;52.354;16.974;2023-04-03T04:59:59;45.0;;;-146.1;100.0
45864;BME280;31579;52.354;16.974;2023-04-03T05:01:03;60.6;;;-146.1;100.0
45864;BME280;31579;52.354;16.974;2023-04-03T05:02:06;90.4;;;-146.1;100.0
45864;BME280;31579;52.354;16.974;2023-04-03T05:03:09;81.4;;;-146.1;100.0
45864;BME280;31579;52.354;16.974;2023-04-03T05:04:13;85.5;;;-146.1;100.0
45864;BME280;31579;52.354;16.974;2023-04-03T05:05:16;96.2;;;-146.1;100.0
45864;BME280;31579;52.354;16.974;2023-04-03T05:06:19;107.0;;;-146.1;100.0
45864;BME280;31579;52.354;16.974;2023-04-03T05:07:22;126.9;;;-146.1;100.0
45864;BME280;31579;52.354;16.974;2023-04-03T05:08:25;145.6;;;-146.1;100.0
45864;BME280;31579;52.354;16.974;2023-04-03T05:09:29;213.5;;;-146.1;100.0
45864;BME280;31579;52.354;16.974;2023-04-03T05:10:32;212.5;;;-146.1;100.0
45864;BME280;31579;52.354;16.974;2023-04-03T05:11:35;229.5;;;-146.1;100.0
45864;BME280;31579;52.354;16.974;2023-04-03T05:12:38;249.1;;;-146.1;100.0
45864;BME280;31579;52.354;16.974;2023-04-03T05:13:41;268.8;;;-146.1;100.0
45864;BME280;31579;52.354;16.974;2023-04-03T05:14:45;366.5;;;-146.1;100.0
45864;BME280;31579;52.354;16.974;2023-04-03T05:15:48;335.7;;;-146.1;100.0
45864;BME280;31579;52.354;16.974;2023-04-03T05:16:52;429.4;;;-146.1;100.0
45864;BME280;31579;52.354;16.974;2023-04-03T05:17:56;469.0;;;-146.1;100.0
45864;BME280;31579;52.354;16.974;2023-04-03T05:19:00;496.0;;;-146.1;100.0
45864;BME280;31579;52.354;16.974;2023-04-03T05:20:06;543.8;;;-146.1;100.0
45864;BME280;31579;52.354;16.974;2023-04-03T05:21:10;581.7;;;-146.1;100.0
45864;BME280;31579;52.354;16.974;2023-04-03T05:22:14;604.4;;;-146.1;100.0
45864;BME280;31579;52.354;16.974;2023-04-03T05:23:18;624.7;;;-146.1;100.0
45864;BME280;31579;52.354;16.974;2023-04-03T05:24:22;643.0;;;-146.1;100.0
45864;BME280;31579;52.354;16.974;2023-04-03T05:25:26;662.1;;;-146.1;100.0
45864;BME280;31579;52.354;16.974;2023-04-03T05:26:30;604.2;;;-146.1;100.0
45864;BME280;31579;52.354;16.974;2023-04-03T05:27:33;697.5;;;-146.1;100.0
45864;BME280;31579;52.354;16.974;2023-04-03T05:28:37;721.7;;;-146.1;100.0
45864;BME280;31579;52.354;16.974;2023-04-03T05:29:41;766.5;;;-146.1;100.0
45864;BME280;31579;52.354;16.974;2023-04-03T05:30:45;833.9;;;-146.1;100.0
45864;BME280;31579;52.354;16.974;2023-04-03T05:31:49;881.3;;;-146.1;100.0
45864;BME280;31579;52.354;16.974;2023-04-03T05:32:57;1046.8;;;-146.1;100.0
45864;BME280;31579;52.354;16.974;2023-04-03T05:34:00;926.7;;;-146.1;100.0
45864;BME280;31579;52.354;16.974;2023-04-03T05:35:04;832.3;;;-146.1;100.0
45864;BME280;31579;52.354;16.974;2023-04-03T05:36:07;925.3;;;-146.1;100.0
45864;BME280;31579;52.354;16.974;2023-04-03T05:37:11;959.5;;;-146.1;100.0
45864;BME280;31579;52.354;16.974;2023-04-03T05:38:14;897.3;;;-146.1;100.0
45864;BME280;31579;52.354;16.974;2023-04-03T05:39:18;990.6;;;-146.1;100.0
45864;BME280;31579;52.354;16.974;2023-04-03T05:40:23;1058.1;;;-146.1;100.0
45864;BME280;31579;52.354;16.974;2023-04-03T05:41:27;1058.4;;;-146.1;100.0
45864;BME280;31579;52.354;16.974;2023-04-03T05:42:31;1098.6;;;-146.1;100.0
45864;BME280;31579;52.354;16.974;2023-04-03T05:43:35;1148.8;;;-146.1;100.0
45864;BME280;31579;52.354;16.974;2023-04-03T05:44:39;1155.5;;;-146.1;100.0